Wednesday, November 26, 2014
00:17 UTC
  |  Log In   |  Register Free
Airport Search:

Pocono Mountains Municipal Airport
(KMPO)

Pocono Mountains Municipal Airport Diagram
No Airport Diagram Available

FAA data valid effective November 13, 2014 - January 08, 2015 (unless otherwise noted).

 
 
 
 
 
 
 
 
 
 
 
 
 
 

Current Aviation Weather for Pocono Mountains Municipal Airport (KMPO)

The most recent METAR observation for KMPO was updated at: 2321
METAR Summary (Translated METAR)
KMPO
252253Z AUTO 28005KT 10SM CLR 05/M04 A3000 RMK AO2 SLP170 T00501039
KAVP
252354Z AUTO 23004KT 10SM CLR 07/M03 A3006 RMK AO2 SLP182 T00671033 10111 20067 53023
(19.6 nm NW from KMPO)
KABE
252351Z 23003KT 10SM CLR 05/M03 A3008 RMK AO2 SLP188 T00501028 10122 20039 53024
(29.3 nm SW from KMPO)
TAF Summary (Translated TAF)
KAVP
(19.6 nm NW from KMPO)
252008Z 2520/2618 23012KT P6SM BKN250 FM260000 VRB05KT P6SM BKN250 FM260700 36005KT P6SM BKN050 OVC150 TEMPO 2607/2610 2SM -SN FM261000 03005KT 2SM -SN OVC018 FM261300 03006KT 1/2SM SN OVC010
KABE
(29.3 nm SW from KMPO)
251739Z 2518/2618 27010G17KT P6SM BKN250 FM252300 31004KT P6SM BKN150 FM260700 36003KT P6SM OVC080 FM261100 03007KT 4SM -RASN OVC015 FM261300 03012KT 1SM -SN BR OVC009 TEMPO 2614/2618 1/4SM +SN FG OVC003
  Airport Weather Conditions for KMPO

 Current Weather at MPO
39° F
Fair
West winds at 8.1 mph
MPO NOAA Radar

Pressure: 30.04 in
Humidity: 60%
Wind: West at 8.1 MPH (7 KT)
Dew Point: 26.1°F
Visibility: 10.00 mi


Airport Weather Forecast for KMPO

Translated METAR and TAF for KMPO
Translated METAR for KMPO (0012 UTC 26 November 2014)
found at http://aviationweather.gov/adds/metars/
 
METAR text: KMPO 252353Z AUTO 29007KT 10SM CLR 04/M03 A3004 RMK AO2 SLP183 T00391033 10078 20039 53022
Conditions at: KMPO (MT. POCONO , PA, US) observed 2353 UTC 25 November 2014
Temperature: 3.9°C (39°F)
Dewpoint: -3.3°C (26°F) [RH = 59%]
Pressure (altimeter): 30.04 inches Hg (1017.4 mb)
[Sea-level pressure: 1018.3 mb]
Winds: from the WNW (290 degrees) at 8 MPH (7 knots; 3.6 m/s)
Visibility: 10 or more miles (16+ km)
Ceiling: at least 12,000 feet AGL
Clouds: sky clear below 12,000 feet AGL
Weather: automated observation with no human augmentation;
there may or may not be significant weather present at this time
Translated TAF for KMPO

There is no translated TAF available for this airport

Find All Airport Services Find A Hotel Find A Rental Car Find A Golf Course Find A Restaurant $100 Hamburger



FBO's on the Field
FBO Company Facility Photos Services Transportation Aviation Fuel Prices: Prices include tax
Catering Weather Repair Courtesy Rental Type 100LL JetA JetA+ MOGAS 8087
 
Pocono Mountains Municipal Airport Authority

This FBO has not yet been rated
FS:Phillips 66
Last Updated: Nov-21
Login to update fuel prices
SS:
Contact Pocono Mountains Municipal Airport AuthorityMore FBO Information
 
Add another FBO Facility Photos Catering Weather Repair Courtesy Rental Type 100LL JetA JetA+ MOGAS 8087
Services Transportation Aviation Fuel Prices: Prices include tax


model-print
model-print
model-print
model-print